sensor_id;sensor_type;location;lat;lon;timestamp;pressure;altitude;pressure_sealevel;temperature;humidity
47054;BME280;32811;52.382;5.270;2022-07-26T00:01:19;101272.47;;;18.02;100.00
47054;BME280;32811;52.382;5.270;2022-07-26T00:03:47;101253.63;;;17.85;100.00
47054;BME280;32811;52.382;5.270;2022-07-26T00:06:14;101267.28;;;17.99;100.00
47054;BME280;32811;52.382;5.270;2022-07-26T00:08:44;101210.63;;;17.56;100.00
47054;BME280;32811;52.382;5.270;2022-07-26T00:11:11;101280.38;;;17.98;100.00
47054;BME280;32811;52.382;5.270;2022-07-26T00:13:38;101195.06;;;17.50;100.00
47054;BME280;32811;52.382;5.270;2022-07-26T00:16:05;101282.06;;;18.02;100.00
47054;BME280;32811;52.382;5.270;2022-07-26T00:18:32;101262.28;;;17.89;100.00
47054;BME280;32811;52.382;5.270;2022-07-26T00:20:58;101273.44;;;17.97;100.00
47054;BME280;32811;52.382;5.270;2022-07-26T00:23:26;101255.44;;;17.81;100.00
47054;BME280;32811;52.382;5.270;2022-07-26T00:25:52;101282.16;;;17.97;100.00
47054;BME280;32811;52.382;5.270;2022-07-26T00:28:19;101286.34;;;18.04;100.00
47054;BME280;32811;52.382;5.270;2022-07-26T00:30:45;101293.19;;;18.12;100.00
47054;BME280;32811;52.382;5.270;2022-07-26T00:33:12;101281.16;;;18.03;100.00
47054;BME280;32811;52.382;5.270;2022-07-26T00:35:39;101298.31;;;18.15;100.00
47054;BME280;32811;52.382;5.270;2022-07-26T00:38:05;101287.84;;;18.16;100.00
47054;BME280;32811;52.382;5.270;2022-07-26T00:40:33;101301.72;;;18.20;100.00
47054;BME280;32811;52.382;5.270;2022-07-26T00:42:59;101304.28;;;18.21;100.00
47054;BME280;32811;52.382;5.270;2022-07-26T00:45:26;101297.38;;;18.19;100.00
47054;BME280;32811;52.382;5.270;2022-07-26T00:47:53;101243.19;;;17.87;100.00
47054;BME280;32811;52.382;5.270;2022-07-26T00:50:20;101293.09;;;18.15;100.00
47054;BME280;32811;52.382;5.270;2022-07-26T00:52:47;101312.00;;;18.28;100.00
47054;BME280;32811;52.382;5.270;2022-07-26T00:55:15;101280.94;;;18.15;100.00
47054;BME280;32811;52.382;5.270;2022-07-26T00:57:42;101316.22;;;18.35;100.00
47054;BME280;32811;52.382;5.270;2022-07-26T01:00:16;101293.63;;;18.32;100.00
47054;BME280;32811;52.382;5.270;2022-07-26T01:02:43;101314.41;;;18.38;100.00
47054;BME280;32811;52.382;5.270;2022-07-26T01:05:10;101313.50;;;18.41;100.00
47054;BME280;32811;52.382;5.270;2022-07-26T01:07:38;101317.69;;;18.48;100.00
47054;BME280;32811;52.382;5.270;2022-07-26T01:10:08;101311.50;;;18.52;100.00
47054;BME280;32811;52.382;5.270;2022-07-26T01:12:39;101319.38;;;18.51;100.00
47054;BME280;32811;52.382;5.270;2022-07-26T01:15:06;101297.72;;;18.44;100.00
47054;BME280;32811;52.382;5.270;2022-07-26T01:17:33;101321.31;;;18.42;100.00
47054;BME280;32811;52.382;5.270;2022-07-26T01:20:05;101325.72;;;18.40;100.00
47054;BME280;32811;52.382;5.270;2022-07-26T01:22:33;101314.56;;;18.31;100.00
47054;BME280;32811;52.382;5.270;2022-07-26T01:25:00;101318.81;;;18.36;100.00
47054;BME280;32811;52.382;5.270;2022-07-26T01:27:26;101298.19;;;18.22;100.00
47054;BME280;32811;52.382;5.270;2022-07-26T01:29:59;101305.31;;;18.14;100.00
47054;BME280;32811;52.382;5.270;2022-07-26T01:32:25;101322.63;;;18.20;100.00
47054;BME280;32811;52.382;5.270;2022-07-26T01:34:52;101311.47;;;18.12;100.00
47054;BME280;32811;52.382;5.270;2022-07-26T01:37:18;101309.78;;;18.08;100.00
47054;BME280;32811;52.382;5.270;2022-07-26T01:39:45;101301.41;;;17.90;100.00
47054;BME280;32811;52.382;5.270;2022-07-26T01:42:12;101308.38;;;17.91;100.00
47054;BME280;32811;52.382;5.270;2022-07-26T01:44:38;101317.16;;;17.87;100.00
47054;BME280;32811;52.382;5.270;2022-07-26T01:47:06;101303.25;;;17.87;100.00
47054;BME280;32811;52.382;5.270;2022-07-26T01:49:32;101318.00;;;17.88;100.00
47054;BME280;32811;52.382;5.270;2022-07-26T01:51:59;101312.91;;;17.80;100.00
47054;BME280;32811;52.382;5.270;2022-07-26T01:54:25;101317.31;;;17.75;100.00
47054;BME280;32811;52.382;5.270;2022-07-26T01:56:52;101330.34;;;17.78;100.00
47054;BME280;32811;52.382;5.270;2022-07-26T01:59:19;101319.91;;;17.78;100.00
47054;BME280;32811;52.382;5.270;2022-07-26T02:01:45;101324.22;;;17.79;100.00
47054;BME280;32811;52.382;5.270;2022-07-26T02:04:12;101323.38;;;17.77;100.00
47054;BME280;32811;52.382;5.270;2022-07-26T02:06:58;101329.44;;;17.79;100.00
47054;BME280;32811;52.382;5.270;2022-07-26T02:09:25;101329.56;;;17.73;100.00
47054;BME280;32811;52.382;5.270;2022-07-26T02:11:54;101328.56;;;17.80;100.00
47054;BME280;32811;52.382;5.270;2022-07-26T02:14:21;101332.09;;;17.77;100.00
47054;BME280;32811;52.382;5.270;2022-07-26T02:16:53;101329.66;;;17.67;100.00
47054;BME280;32811;52.382;5.270;2022-07-26T02:19:28;101323.72;;;17.57;100.00
47054;BME280;32811;52.382;5.270;2022-07-26T02:21:55;101328.94;;;17.57;100.00
47054;BME280;32811;52.382;5.270;2022-07-26T02:24:22;101322.88;;;17.56;100.00
47054;BME280;32811;52.382;5.270;2022-07-26T02:26:49;101322.09;;;17.51;100.00
47054;BME280;32811;52.382;5.270;2022-07-26T02:29:15;101329.06;;;17.51;100.00
47054;BME280;32811;52.382;5.270;2022-07-26T02:31:42;101328.25;;;17.47;100.00
47054;BME280;32811;52.382;5.270;2022-07-26T02:34:14;101333.59;;;17.39;100.00
47054;BME280;32811;52.382;5.270;2022-07-26T02:36:41;101330.09;;;17.40;100.00
47054;BME280;32811;52.382;5.270;2022-07-26T02:39:07;101325.81;;;17.36;100.00
47054;BME280;32811;52.382;5.270;2022-07-26T02:41:34;101331.19;;;17.26;100.00
47054;BME280;32811;52.382;5.270;2022-07-26T02:44:00;101335.44;;;17.33;100.00
47054;BME280;32811;52.382;5.270;2022-07-26T02:46:27;101326.09;;;17.19;100.00
47054;BME280;32811;52.382;5.270;2022-07-26T02:48:53;101333.88;;;17.21;100.00
47054;BME280;32811;52.382;5.270;2022-07-26T02:51:20;101337.38;;;17.21;100.00
47054;BME280;32811;52.382;5.270;2022-07-26T02:53:47;101341.81;;;17.13;100.00
47054;BME280;32811;52.382;5.270;2022-07-26T02:56:14;101337.47;;;17.14;100.00
47054;BME280;32811;52.382;5.270;2022-07-26T02:58:40;101344.50;;;17.10;100.00
47054;BME280;32811;52.382;5.270;2022-07-26T03:01:07;101347.09;;;17.09;100.00
47054;BME280;32811;52.382;5.270;2022-07-26T03:03:33;101359.34;;;17.04;100.00
47054;BME280;32811;52.382;5.270;2022-07-26T03:06:03;101353.38;;;16.95;100.00
47054;BME280;32811;52.382;5.270;2022-07-26T03:08:30;101355.13;;;16.95;100.00
47054;BME280;32811;52.382;5.270;2022-07-26T03:10:57;101352.59;;;16.90;100.00
47054;BME280;32811;52.382;5.270;2022-07-26T03:13:23;101358.75;;;16.83;100.00
47054;BME280;32811;52.382;5.270;2022-07-26T03:15:50;101356.13;;;16.83;100.00
47054;BME280;32811;52.382;5.270;2022-07-26T03:18:16;101360.50;;;16.81;100.00
47054;BME280;32811;52.382;5.270;2022-07-26T03:20:43;101365.72;;;16.83;100.00
47054;BME280;32811;52.382;5.270;2022-07-26T03:23:10;101368.25;;;16.89;100.00
47054;BME280;32811;52.382;5.270;2022-07-26T03:25:37;101367.41;;;16.87;100.00
47054;BME280;32811;52.382;5.270;2022-07-26T03:28:03;101376.94;;;16.88;100.00
47054;BME280;32811;52.382;5.270;2022-07-26T03:30:30;101371.81;;;16.82;100.00
47054;BME280;32811;52.382;5.270;2022-07-26T03:32:57;101372.63;;;16.87;100.00
47054;BME280;32811;52.382;5.270;2022-07-26T03:35:23;101375.28;;;16.84;100.00
47054;BME280;32811;52.382;5.270;2022-07-26T03:37:51;101381.28;;;16.87;100.00
47054;BME280;32811;52.382;5.270;2022-07-26T03:40:18;101376.06;;;16.90;100.00
47054;BME280;32811;52.382;5.270;2022-07-26T03:42:46;101363.94;;;16.86;100.00
47054;BME280;32811;52.382;5.270;2022-07-26T03:45:14;101384.59;;;17.01;100.00
47054;BME280;32811;52.382;5.270;2022-07-26T03:47:41;101388.84;;;17.07;100.00
47054;BME280;32811;52.382;5.270;2022-07-26T03:50:09;101382.84;;;17.04;100.00
47054;BME280;32811;52.382;5.270;2022-07-26T03:52:36;101396.59;;;17.12;100.00
47054;BME280;32811;52.382;5.270;2022-07-26T03:55:03;101393.13;;;17.13;100.00
47054;BME280;32811;52.382;5.270;2022-07-26T03:57:50;101386.09;;;17.16;100.00
47054;BME280;32811;52.382;5.270;2022-07-26T04:00:16;101390.41;;;17.22;100.00
47054;BME280;32811;52.382;5.270;2022-07-26T04:02:43;101380.03;;;17.16;100.00
47054;BME280;32811;52.382;5.270;2022-07-26T04:05:10;101387.00;;;17.17;100.00
47054;BME280;32811;52.382;5.270;2022-07-26T04:07:41;101388.69;;;17.19;100.00
47054;BME280;32811;52.382;5.270;2022-07-26T04:10:16;101391.25;;;17.22;100.00
47054;BME280;32811;52.382;5.270;2022-07-26T04:12:43;101389.47;;;17.25;100.00
47054;BME280;32811;52.382;5.270;2022-07-26T04:15:10;101405.91;;;17.30;100.00
47054;BME280;32811;52.382;5.270;2022-07-26T04:17:40;101403.31;;;17.31;100.00
47054;BME280;32811;52.382;5.270;2022-07-26T04:20:08;101406.75;;;17.33;100.00
47054;BME280;32811;52.382;5.270;2022-07-26T04:22:36;101407.59;;;17.34;100.00
47054;BME280;32811;52.382;5.270;2022-07-26T04:25:04;101411.91;;;17.38;100.00
47054;BME280;32811;52.382;5.270;2022-07-26T04:27:32;101406.69;;;17.36;100.00
47054;BME280;32811;52.382;5.270;2022-07-26T04:29:58;101411.00;;;17.39;100.00
47054;BME280;32811;52.382;5.270;2022-07-26T04:32:25;101409.28;;;17.39;100.00
47054;BME280;32811;52.382;5.270;2022-07-26T04:34:52;101425.72;;;17.46;100.00
47054;BME280;32811;52.382;5.270;2022-07-26T04:37:18;101413.59;;;17.42;100.00
47054;BME280;32811;52.382;5.270;2022-07-26T04:39:45;101421.34;;;17.47;100.00
47054;BME280;32811;52.382;5.270;2022-07-26T04:42:16;101422.19;;;17.47;100.00
47054;BME280;32811;52.382;5.270;2022-07-26T04:44:43;101426.50;;;17.50;100.00
47054;BME280;32811;52.382;5.270;2022-07-26T04:47:09;101422.97;;;17.54;100.00
47054;BME280;32811;52.382;5.270;2022-07-26T04:49:36;101425.59;;;17.52;100.00
47054;BME280;32811;52.382;5.270;2022-07-26T04:52:03;101429.16;;;17.48;100.00
47054;BME280;32811;52.382;5.270;2022-07-26T04:54:29;101434.38;;;17.48;100.00
47054;BME280;32811;52.382;5.270;2022-07-26T04:56:56;101441.31;;;17.51;100.00
47054;BME280;32811;52.382;5.270;2022-07-26T04:59:22;101439.59;;;17.48;100.00
47054;BME280;32811;52.382;5.270;2022-07-26T05:01:49;101434.41;;;17.45;100.00
47054;BME280;32811;52.382;5.270;2022-07-26T05:04:16;101436.94;;;17.51;100.00
47054;BME280;32811;52.382;5.270;2022-07-26T05:06:42;101458.50;;;17.64;100.00
47054;BME280;32811;52.382;5.270;2022-07-26T05:09:09;101455.00;;;17.65;100.00
47054;BME280;32811;52.382;5.270;2022-07-26T05:11:36;101457.63;;;17.63;100.00
47054;BME280;32811;52.382;5.270;2022-07-26T05:14:02;101458.66;;;17.53;100.00
47054;BME280;32811;52.382;5.270;2022-07-26T05:16:29;101463.81;;;17.59;100.00
47054;BME280;32811;52.382;5.270;2022-07-26T05:18:56;101469.03;;;17.59;100.00
47054;BME280;32811;52.382;5.270;2022-07-26T05:21:23;101469.13;;;17.50;100.00
47054;BME280;32811;52.382;5.270;2022-07-26T05:23:49;101472.63;;;17.49;100.00
47054;BME280;32811;52.382;5.270;2022-07-26T05:26:16;101469.25;;;17.41;100.00
47054;BME280;32811;52.382;5.270;2022-07-26T05:28:43;101479.69;;;17.41;100.00
47054;BME280;32811;52.382;5.270;2022-07-26T05:31:09;101483.28;;;17.34;100.00
47054;BME280;32811;52.382;5.270;2022-07-26T05:33:36;101481.66;;;17.27;100.00
47054;BME280;32811;52.382;5.270;2022-07-26T05:36:03;101489.41;;;17.31;100.00
47054;BME280;32811;52.382;5.270;2022-07-26T05:38:29;101492.88;;;17.32;100.00
47054;BME280;32811;52.382;5.270;2022-07-26T05:40:56;101486.78;;;17.33;100.00
47054;BME280;32811;52.382;5.270;2022-07-26T05:43:22;101495.41;;;17.39;100.00
47054;BME280;32811;52.382;5.270;2022-07-26T05:45:49;101501.50;;;17.37;100.00
47054;BME280;32811;52.382;5.270;2022-07-26T05:48:15;101516.28;;;17.38;100.00
47054;BME280;32811;52.382;5.270;2022-07-26T05:50:42;101513.53;;;17.49;100.00
47054;BME280;32811;52.382;5.270;2022-07-26T05:53:09;101512.75;;;17.42;100.00
47054;BME280;32811;52.382;5.270;2022-07-26T05:55:35;101523.94;;;17.50;100.00
47054;BME280;32811;52.382;5.270;2022-07-26T05:58:02;101523.84;;;17.58;100.00
47054;BME280;32811;52.382;5.270;2022-07-26T06:00:29;101518.63;;;17.58;100.00
47054;BME280;32811;52.382;5.270;2022-07-26T06:02:55;101520.28;;;17.63;100.00
47054;BME280;32811;52.382;5.270;2022-07-26T06:05:22;101526.38;;;17.64;100.00
47054;BME280;32811;52.382;5.270;2022-07-26T06:07:49;101533.38;;;17.62;100.00
47054;BME280;32811;52.382;5.270;2022-07-26T06:10:15;101525.47;;;17.65;100.00
47054;BME280;32811;52.382;5.270;2022-07-26T06:12:42;101534.09;;;17.70;100.00
47054;BME280;32811;52.382;5.270;2022-07-26T06:15:08;101539.38;;;17.67;100.00
47054;BME280;32811;52.382;5.270;2022-07-26T06:17:41;101544.56;;;17.70;100.00
47054;BME280;32811;52.382;5.270;2022-07-26T06:20:08;101553.34;;;17.64;100.00
47054;BME280;32811;52.382;5.270;2022-07-26T06:22:34;101548.91;;;17.70;100.00
47054;BME280;32811;52.382;5.270;2022-07-26T06:25:01;101549.69;;;17.78;100.00
47054;BME280;32811;52.382;5.270;2022-07-26T06:27:30;101565.38;;;17.75;100.00
47054;BME280;32811;52.382;5.270;2022-07-26T06:29:57;101564.44;;;17.79;100.00
47054;BME280;32811;52.382;5.270;2022-07-26T06:32:23;101565.28;;;17.81;100.00
47054;BME280;32811;52.382;5.270;2022-07-26T06:34:50;101572.47;;;17.67;100.00
47054;BME280;32811;52.382;5.270;2022-07-26T06:37:17;101574.25;;;17.61;100.00
47054;BME280;32811;52.382;5.270;2022-07-26T06:39:43;101574.31;;;17.57;100.00
47054;BME280;32811;52.382;5.270;2022-07-26T06:42:10;101561.31;;;17.55;100.00
47054;BME280;32811;52.382;5.270;2022-07-26T06:44:36;101579.44;;;17.64;100.00
47054;BME280;32811;52.382;5.270;2022-07-26T06:47:03;101585.47;;;17.68;100.00
47054;BME280;32811;52.382;5.270;2022-07-26T06:49:29;101575.03;;;17.70;100.00
47054;BME280;32811;52.382;5.270;2022-07-26T06:51:56;101582.63;;;17.90;100.00
47054;BME280;32811;52.382;5.270;2022-07-26T06:54:23;101586.91;;;17.95;100.00
47054;BME280;32811;52.382;5.270;2022-07-26T06:56:49;101598.75;;;18.18;100.00
47054;BME280;32811;52.382;5.270;2022-07-26T06:59:16;101592.31;;;18.42;100.00
47054;BME280;32811;52.382;5.270;2022-07-26T07:01:42;101590.22;;;18.62;100.00
47054;BME280;32811;52.382;5.270;2022-07-26T07:04:25;101602.22;;;18.74;100.00
47054;BME280;32811;52.382;5.270;2022-07-26T07:06:51;101596.94;;;18.79;100.00
47054;BME280;32811;52.382;5.270;2022-07-26T07:09:18;101608.91;;;18.91;100.00
47054;BME280;32811;52.382;5.270;2022-07-26T07:11:45;101612.94;;;19.10;100.00
47054;BME280;32811;52.382;5.270;2022-07-26T07:14:21;101608.25;;;19.26;100.00
47054;BME280;32811;52.382;5.270;2022-07-26T07:16:48;101628.28;;;19.74;100.00
47054;BME280;32811;52.382;5.270;2022-07-26T07:19:14;101625.91;;;20.03;97.17
47054;BME280;32811;52.382;5.270;2022-07-26T07:21:41;101635.13;;;19.81;99.48
47054;BME280;32811;52.382;5.270;2022-07-26T07:24:07;101637.63;;;19.42;100.00
47054;BME280;32811;52.382;5.270;2022-07-26T07:26:35;101635.28;;;19.26;100.00
47054;BME280;32811;52.382;5.270;2022-07-26T07:29:02;101643.41;;;19.13;100.00
47054;BME280;32811;52.382;5.270;2022-07-26T07:31:29;101631.31;;;19.05;100.00
47054;BME280;32811;52.382;5.270;2022-07-26T07:34:15;101634.50;;;19.23;100.00
47054;BME280;32811;52.382;5.270;2022-07-26T07:36:45;101632.91;;;19.16;100.00
47054;BME280;32811;52.382;5.270;2022-07-26T07:39:12;101627.38;;;18.83;100.00
47054;BME280;32811;52.382;5.270;2022-07-26T07:41:44;101649.09;;;18.86;100.00
47054;BME280;32811;52.382;5.270;2022-07-26T07:44:11;101644.22;;;18.65;100.00
47054;BME280;32811;52.382;5.270;2022-07-26T07:46:37;101643.94;;;18.82;100.00
47054;BME280;32811;52.382;5.270;2022-07-26T07:49:05;101635.66;;;19.06;100.00
47054;BME280;32811;52.382;5.270;2022-07-26T07:51:32;101643.47;;;19.56;100.00
47054;BME280;32811;52.382;5.270;2022-07-26T07:54:01;101639.38;;;20.25;97.86
47054;BME280;32811;52.382;5.270;2022-07-26T07:56:31;101639.75;;;20.08;98.46
47054;BME280;32811;52.382;5.270;2022-07-26T07:58:58;101648.56;;;20.04;100.00
47054;BME280;32811;52.382;5.270;2022-07-26T08:01:24;101638.97;;;20.05;97.57
47054;BME280;32811;52.382;5.270;2022-07-26T08:04:05;101652.28;;;20.33;99.59
47054;BME280;32811;52.382;5.270;2022-07-26T08:06:31;101636.69;;;20.66;95.04
47054;BME280;32811;52.382;5.270;2022-07-26T08:08:58;101650.53;;;20.33;96.97
47054;BME280;32811;52.382;5.270;2022-07-26T08:11:25;101652.88;;;20.46;99.35
47054;BME280;32811;52.382;5.270;2022-07-26T08:13:55;101653.81;;;20.43;98.19
47054;BME280;32811;52.382;5.270;2022-07-26T08:16:23;101662.88;;;20.28;99.09
47054;BME280;32811;52.382;5.270;2022-07-26T08:18:49;101671.75;;;19.82;100.00
47054;BME280;32811;52.382;5.270;2022-07-26T08:21:26;101672.31;;;19.53;100.00
47054;BME280;32811;52.382;5.270;2022-07-26T08:23:55;101671.63;;;19.45;100.00
47054;BME280;32811;52.382;5.270;2022-07-26T08:26:22;101679.41;;;19.48;99.70
47054;BME280;32811;52.382;5.270;2022-07-26T08:28:48;101680.22;;;19.50;99.22
47054;BME280;32811;52.382;5.270;2022-07-26T08:31:26;101684.81;;;19.37;100.00
47054;BME280;32811;52.382;5.270;2022-07-26T08:33:53;101683.13;;;19.36;100.00
47054;BME280;32811;52.382;5.270;2022-07-26T08:36:19;101695.41;;;19.31;100.00
47054;BME280;32811;52.382;5.270;2022-07-26T08:38:46;101693.84;;;19.22;99.47
47054;BME280;32811;52.382;5.270;2022-07-26T08:41:15;101696.56;;;19.16;98.91
47054;BME280;32811;52.382;5.270;2022-07-26T08:43:42;101700.03;;;19.18;98.76
47054;BME280;32811;52.382;5.270;2022-07-26T08:46:18;101689.38;;;19.27;97.06
47054;BME280;32811;52.382;5.270;2022-07-26T08:48:51;101706.59;;;19.39;94.12
47054;BME280;32811;52.382;5.270;2022-07-26T08:51:19;101704.00;;;19.38;95.67
47054;BME280;32811;52.382;5.270;2022-07-26T08:53:49;101700.88;;;19.67;92.38
47054;BME280;32811;52.382;5.270;2022-07-26T08:56:15;101719.53;;;19.95;90.25
47054;BME280;32811;52.382;5.270;2022-07-26T08:58:42;101716.78;;;20.01;87.04
47054;BME280;32811;52.382;5.270;2022-07-26T09:01:11;101716.25;;;19.85;87.69
47054;BME280;32811;52.382;5.270;2022-07-26T09:03:42;101727.38;;;19.97;87.57
47054;BME280;32811;52.382;5.270;2022-07-26T09:06:20;101723.81;;;19.99;88.14
47054;BME280;32811;52.382;5.270;2022-07-26T09:08:51;101720.66;;;20.24;85.01
47054;BME280;32811;52.382;5.270;2022-07-26T09:14:16;101727.88;;;20.92;87.01
47054;BME280;32811;52.382;5.270;2022-07-26T09:16:56;101731.34;;;21.28;78.78
47054;BME280;32811;52.382;5.270;2022-07-26T09:19:24;101725.75;;;21.08;79.07
47054;BME280;32811;52.382;5.270;2022-07-26T09:21:51;101736.44;;;21.34;81.75
47054;BME280;32811;52.382;5.270;2022-07-26T09:24:35;101731.84;;;21.75;80.07
47054;BME280;32811;52.382;5.270;2022-07-26T09:27:04;101727.84;;;21.92;75.63
47054;BME280;32811;52.382;5.270;2022-07-26T09:29:52;101738.09;;;21.37;77.87
47054;BME280;32811;52.382;5.270;2022-07-26T09:32:25;101738.09;;;21.37;78.76
47054;BME280;32811;52.382;5.270;2022-07-26T09:34:54;101741.81;;;21.63;76.28
47054;BME280;32811;52.382;5.270;2022-07-26T09:37:38;101748.44;;;21.45;78.22
47054;BME280;32811;52.382;5.270;2022-07-26T09:40:09;101754.78;;;21.00;81.25
47054;BME280;32811;52.382;5.270;2022-07-26T09:42:36;101763.47;;;20.66;87.16
47054;BME280;32811;52.382;5.270;2022-07-26T09:45:14;101760.75;;;20.29;90.70
47054;BME280;32811;52.382;5.270;2022-07-26T09:47:41;101763.66;;;19.72;92.38
47054;BME280;32811;52.382;5.270;2022-07-26T09:50:13;101778.91;;;19.48;94.22
47054;BME280;32811;52.382;5.270;2022-07-26T09:52:59;101765.22;;;19.31;97.36
47054;BME280;32811;52.382;5.270;2022-07-26T09:55:27;101773.19;;;19.24;98.08
47054;BME280;32811;52.382;5.270;2022-07-26T09:58:07;101782.56;;;19.38;99.78
47054;BME280;32811;52.382;5.270;2022-07-26T10:00:35;101785.81;;;19.50;97.92
47054;BME280;32811;52.382;5.270;2022-07-26T10:03:01;101784.91;;;19.53;97.82
47054;BME280;32811;52.382;5.270;2022-07-26T10:05:28;101788.25;;;19.61;97.92
47054;BME280;32811;52.382;5.270;2022-07-26T10:07:55;101787.00;;;19.33;100.00
47054;BME280;32811;52.382;5.270;2022-07-26T10:10:28;101786.66;;;19.01;100.00
47054;BME280;32811;52.382;5.270;2022-07-26T10:12:56;101802.16;;;19.14;100.00
47054;BME280;32811;52.382;5.270;2022-07-26T10:18:10;101810.25;;;18.97;100.00
47054;BME280;32811;52.382;5.270;2022-07-26T10:20:50;101817.78;;;18.58;100.00
47054;BME280;32811;52.382;5.270;2022-07-26T10:23:40;101825.06;;;18.31;100.00
47054;BME280;32811;52.382;5.270;2022-07-26T10:26:10;101819.00;;;18.26;100.00
47054;BME280;32811;52.382;5.270;2022-07-26T10:28:38;101823.97;;;18.49;100.00
47054;BME280;32811;52.382;5.270;2022-07-26T10:31:27;101819.34;;;18.71;100.00
47054;BME280;32811;52.382;5.270;2022-07-26T10:33:57;101817.97;;;19.07;100.00
47054;BME280;32811;52.382;5.270;2022-07-26T10:39:07;101817.06;;;20.93;93.33
47054;BME280;32811;52.382;5.270;2022-07-26T10:41:36;101824.00;;;20.96;89.59
47054;BME280;32811;52.382;5.270;2022-07-26T10:44:21;101829.84;;;20.70;92.64
47054;BME280;32811;52.382;5.270;2022-07-26T10:46:59;101836.50;;;19.99;93.66
47054;BME280;32811;52.382;5.270;2022-07-26T10:49:40;101849.50;;;19.53;100.00
47054;BME280;32811;52.382;5.270;2022-07-26T10:57:22;101837.13;;;18.41;100.00
47054;BME280;32811;52.382;5.270;2022-07-26T10:59:49;101839.03;;;18.29;100.00
47054;BME280;32811;52.382;5.270;2022-07-26T11:02:26;101823.44;;;18.21;100.00
47054;BME280;32811;52.382;5.270;2022-07-26T11:05:05;101840.53;;;18.50;100.00
47054;BME280;32811;52.382;5.270;2022-07-26T11:13:16;101837.63;;;18.71;100.00
47054;BME280;32811;52.382;5.270;2022-07-26T11:15:59;101845.69;;;18.56;100.00
47054;BME280;32811;52.382;5.270;2022-07-26T11:18:29;101850.00;;;18.58;100.00
47054;BME280;32811;52.382;5.270;2022-07-26T11:21:08;101849.16;;;18.55;98.41
47054;BME280;32811;52.382;5.270;2022-07-26T11:23:36;101852.50;;;18.69;100.00
47054;BME280;32811;52.382;5.270;2022-07-26T11:26:13;101854.13;;;18.76;100.00
47054;BME280;32811;52.382;5.270;2022-07-26T11:28:56;101859.91;;;19.03;97.21
47054;BME280;32811;52.382;5.270;2022-07-26T11:34:23;101846.81;;;19.59;90.47
47054;BME280;32811;52.382;5.270;2022-07-26T11:36:53;101846.69;;;19.65;91.07
47054;BME280;32811;52.382;5.270;2022-07-26T11:39:21;101862.16;;;19.80;88.85
47054;BME280;32811;52.382;5.270;2022-07-26T11:41:49;101867.19;;;19.93;86.96
47054;BME280;32811;52.382;5.270;2022-07-26T11:44:21;101855.84;;;19.92;83.29
47054;BME280;32811;52.382;5.270;2022-07-26T11:46:49;101869.97;;;19.85;86.77
47054;BME280;32811;52.382;5.270;2022-07-26T11:49:21;101866.91;;;19.58;91.92
47054;BME280;32811;52.382;5.270;2022-07-26T11:51:58;101861.13;;;19.36;89.23
47054;BME280;32811;52.382;5.270;2022-07-26T11:54:27;101862.09;;;19.31;88.24
47054;BME280;32811;52.382;5.270;2022-07-26T11:59:24;101864.97;;;19.14;90.71
47054;BME280;32811;52.382;5.270;2022-07-26T12:01:51;101867.81;;;18.97;88.25
47054;BME280;32811;52.382;5.270;2022-07-26T12:04:25;101878.28;;;18.97;88.47
47054;BME280;32811;52.382;5.270;2022-07-26T12:06:54;101882.88;;;18.79;86.80
47054;BME280;32811;52.382;5.270;2022-07-26T12:09:48;101882.69;;;18.93;89.08
47054;BME280;32811;52.382;5.270;2022-07-26T12:12:26;101875.59;;;19.03;86.52
47054;BME280;32811;52.382;5.270;2022-07-26T12:15:04;101885.88;;;19.15;85.03
47054;BME280;32811;52.382;5.270;2022-07-26T12:17:33;101876.31;;;19.14;84.60
47054;BME280;32811;52.382;5.270;2022-07-26T12:20:15;101884.63;;;19.42;85.28
47054;BME280;32811;52.382;5.270;2022-07-26T12:22:53;101884.22;;;19.65;80.76
47054;BME280;32811;52.382;5.270;2022-07-26T12:25:27;101873.56;;;19.78;82.97
47054;BME280;32811;52.382;5.270;2022-07-26T12:27:54;101879.81;;;20.19;78.54
47054;BME280;32811;52.382;5.270;2022-07-26T12:30:22;101883.84;;;20.37;76.65
47054;BME280;32811;52.382;5.270;2022-07-26T12:32:49;101871.59;;;20.37;75.50
47054;BME280;32811;52.382;5.270;2022-07-26T12:35:31;101880.19;;;20.44;75.52
47054;BME280;32811;52.382;5.270;2022-07-26T12:37:59;101876.84;;;20.36;74.92
47054;BME280;32811;52.382;5.270;2022-07-26T12:40:28;101880.09;;;20.48;68.05
47054;BME280;32811;52.382;5.270;2022-07-26T12:42:59;101889.69;;;20.49;65.27
47054;BME280;32811;52.382;5.270;2022-07-26T12:45:29;101874.97;;;20.42;66.99
47054;BME280;32811;52.382;5.270;2022-07-26T12:47:58;101883.50;;;20.53;65.78
47054;BME280;32811;52.382;5.270;2022-07-26T12:50:26;101891.19;;;20.63;68.12
47054;BME280;32811;52.382;5.270;2022-07-26T12:53:05;101898.53;;;20.45;65.61
47054;BME280;32811;52.382;5.270;2022-07-26T12:55:34;101898.75;;;20.33;64.11
47054;BME280;32811;52.382;5.270;2022-07-26T12:58:01;101896.91;;;20.38;66.04
47054;BME280;32811;52.382;5.270;2022-07-26T13:00:28;101896.00;;;19.94;66.88
47054;BME280;32811;52.382;5.270;2022-07-26T13:02:56;101900.31;;;19.98;67.20
47054;BME280;32811;52.382;5.270;2022-07-26T13:05:22;101896.94;;;19.92;67.33
47054;BME280;32811;52.382;5.270;2022-07-26T13:07:49;101893.91;;;20.11;67.58
47054;BME280;32811;52.382;5.270;2022-07-26T13:10:19;101902.09;;;20.41;63.53
47054;BME280;32811;52.382;5.270;2022-07-26T13:13:02;101907.78;;;20.65;63.99
47054;BME280;32811;52.382;5.270;2022-07-26T13:15:29;101901.03;;;20.95;63.44
47054;BME280;32811;52.382;5.270;2022-07-26T13:18:04;101903.72;;;20.92;63.49